sensor_id;sensor_type;location;lat;lon;timestamp;pressure;altitude;pressure_sealevel;temperature;humidity
43312;BME280;30041;48.300;16.352;2023-08-30T00:00:46;98773.06;;;25.53;50.85
43312;BME280;30041;48.300;16.352;2023-08-30T00:03:12;98767.38;;;25.55;50.97
43312;BME280;30041;48.300;16.352;2023-08-30T00:05:44;98760.84;;;25.56;50.95
43312;BME280;30041;48.300;16.352;2023-08-30T00:08:09;98756.50;;;25.55;50.98
43312;BME280;30041;48.300;16.352;2023-08-30T00:10:35;98754.88;;;25.54;50.82
43312;BME280;30041;48.300;16.352;2023-08-30T00:13:01;98756.00;;;25.53;50.99
43312;BME280;30041;48.300;16.352;2023-08-30T00:15:27;98760.31;;;25.54;50.95
43312;BME280;30041;48.300;16.352;2023-08-30T00:17:52;98765.72;;;25.54;50.87
43312;BME280;30041;48.300;16.352;2023-08-30T00:20:19;98773.88;;;25.54;50.75
43312;BME280;30041;48.300;16.352;2023-08-30T00:22:44;98766.84;;;25.53;50.80
43312;BME280;30041;48.300;16.352;2023-08-30T00:25:10;98761.94;;;25.55;50.81
43312;BME280;30041;48.300;16.352;2023-08-30T00:27:35;98750.84;;;25.51;50.78
43312;BME280;30041;48.300;16.352;2023-08-30T00:30:01;98753.28;;;25.53;50.80
43312;BME280;30041;48.300;16.352;2023-08-30T00:32:26;98748.66;;;25.53;50.95
43312;BME280;30041;48.300;16.352;2023-08-30T00:34:52;98748.94;;;25.52;50.92
43312;BME280;30041;48.300;16.352;2023-08-30T00:37:17;98750.56;;;25.53;50.82
43312;BME280;30041;48.300;16.352;2023-08-30T00:39:43;98745.13;;;25.53;51.00
43312;BME280;30041;48.300;16.352;2023-08-30T00:42:09;98743.50;;;25.52;50.79
43312;BME280;30041;48.300;16.352;2023-08-30T00:44:34;98756.25;;;25.51;50.97
43312;BME280;30041;48.300;16.352;2023-08-30T00:47:01;98766.03;;;25.52;50.92
43312;BME280;30041;48.300;16.352;2023-08-30T00:49:31;98774.44;;;25.51;50.97
43312;BME280;30041;48.300;16.352;2023-08-30T00:52:02;98779.59;;;25.52;50.97
43312;BME280;30041;48.300;16.352;2023-08-30T00:54:28;98777.44;;;25.49;50.72
43312;BME280;30041;48.300;16.352;2023-08-30T00:56:56;98772.81;;;25.50;50.94
43312;BME280;30041;48.300;16.352;2023-08-30T00:59:23;98772.31;;;25.47;50.80
43312;BME280;30041;48.300;16.352;2023-08-30T01:01:49;98782.06;;;25.48;50.96
43312;BME280;30041;48.300;16.352;2023-08-30T01:04:15;98782.06;;;25.48;50.94
43312;BME280;30041;48.300;16.352;2023-08-30T01:06:41;98789.09;;;25.50;50.77
43312;BME280;30041;48.300;16.352;2023-08-30T01:09:07;98787.50;;;25.48;50.73
43312;BME280;30041;48.300;16.352;2023-08-30T01:11:40;98792.91;;;25.48;51.18
43312;BME280;30041;48.300;16.352;2023-08-30T01:14:12;98787.50;;;25.48;50.71
43312;BME280;30041;48.300;16.352;2023-08-30T01:16:39;98786.38;;;25.50;50.58
43312;BME280;30041;48.300;16.352;2023-08-30T01:21:56;98786.69;;;25.48;50.85
43312;BME280;30041;48.300;16.352;2023-08-30T01:24:32;98792.91;;;25.48;50.89
43312;BME280;30041;48.300;16.352;2023-08-30T01:27:12;98795.09;;;25.46;50.92
43312;BME280;30041;48.300;16.352;2023-08-30T01:29:43;98794.81;;;25.48;50.99
43312;BME280;30041;48.300;16.352;2023-08-30T01:32:09;98800.25;;;25.48;50.93
43312;BME280;30041;48.300;16.352;2023-08-30T01:34:38;98790.47;;;25.47;50.79
43312;BME280;30041;48.300;16.352;2023-08-30T01:37:08;98791.31;;;25.47;51.09
43312;BME280;30041;48.300;16.352;2023-08-30T01:39:36;98793.50;;;25.45;50.93
43312;BME280;30041;48.300;16.352;2023-08-30T01:42:03;98792.38;;;25.46;50.81
43312;BME280;30041;48.300;16.352;2023-08-30T01:44:30;98799.16;;;25.49;51.08
43312;BME280;30041;48.300;16.352;2023-08-30T01:46:57;98795.09;;;25.46;50.96
43312;BME280;30041;48.300;16.352;2023-08-30T01:49:23;98797.81;;;25.46;51.07
43312;BME280;30041;48.300;16.352;2023-08-30T01:51:51;98802.44;;;25.46;50.94
43312;BME280;30041;48.300;16.352;2023-08-30T01:54:18;98803.50;;;25.45;51.14
43312;BME280;30041;48.300;16.352;2023-08-30T01:56:45;98801.63;;;25.45;51.03
43312;BME280;30041;48.300;16.352;2023-08-30T01:59:11;98803.50;;;25.45;50.98
43312;BME280;30041;48.300;16.352;2023-08-30T02:01:37;98807.34;;;25.44;50.80
43312;BME280;30041;48.300;16.352;2023-08-30T02:04:02;98808.66;;;25.46;50.95
43312;BME280;30041;48.300;16.352;2023-08-30T02:06:35;98805.16;;;25.46;50.88
43312;BME280;30041;48.300;16.352;2023-08-30T02:09:39;98803.50;;;25.45;50.97
43312;BME280;30041;48.300;16.352;2023-08-30T02:12:14;98799.19;;;25.44;50.87
43312;BME280;30041;48.300;16.352;2023-08-30T02:14:44;98798.09;;;25.45;50.79
43312;BME280;30041;48.300;16.352;2023-08-30T02:17:10;98800.28;;;25.43;51.22
43312;BME280;30041;48.300;16.352;2023-08-30T02:19:37;98816.00;;;25.46;50.79
43312;BME280;30041;48.300;16.352;2023-08-30T02:22:02;98816.56;;;25.43;51.11
43312;BME280;30041;48.300;16.352;2023-08-30T02:24:28;98811.13;;;25.43;50.75
43312;BME280;30041;48.300;16.352;2023-08-30T02:26:53;98817.66;;;25.42;51.25
43312;BME280;30041;48.300;16.352;2023-08-30T02:29:22;98819.56;;;25.41;50.83
43312;BME280;30041;48.300;16.352;2023-08-30T02:31:47;98816.84;;;25.41;51.10
43312;BME280;30041;48.300;16.352;2023-08-30T02:34:13;98819.56;;;25.41;50.78
43312;BME280;30041;48.300;16.352;2023-08-30T02:36:38;98810.63;;;25.41;50.89
43312;BME280;30041;48.300;16.352;2023-08-30T02:39:07;98811.44;;;25.41;50.70
43312;BME280;30041;48.300;16.352;2023-08-30T02:41:32;98810.63;;;25.41;50.88
43312;BME280;30041;48.300;16.352;2023-08-30T02:43:58;98804.91;;;25.42;51.10
43312;BME280;30041;48.300;16.352;2023-08-30T02:46:23;98811.44;;;25.41;50.92
43312;BME280;30041;48.300;16.352;2023-08-30T02:48:49;98810.63;;;25.41;50.97
43312;BME280;30041;48.300;16.352;2023-08-30T02:51:14;98806.00;;;25.41;50.90
43312;BME280;30041;48.300;16.352;2023-08-30T02:53:40;98805.19;;;25.41;50.78
43312;BME280;30041;48.300;16.352;2023-08-30T02:56:05;98806.00;;;25.41;50.90
43312;BME280;30041;48.300;16.352;2023-08-30T02:58:33;98800.06;;;25.39;51.07
43312;BME280;30041;48.300;16.352;2023-08-30T03:01:00;98802.50;;;25.41;50.90
43312;BME280;30041;48.300;16.352;2023-08-30T03:03:25;98791.91;;;25.39;50.71
43312;BME280;30041;48.300;16.352;2023-08-30T03:05:51;98788.09;;;25.40;50.87
43312;BME280;30041;48.300;16.352;2023-08-30T03:08:16;98790.53;;;25.42;50.79
43312;BME280;30041;48.300;16.352;2023-08-30T03:10:42;98784.59;;;25.40;50.87
43312;BME280;30041;48.300;16.352;2023-08-30T03:13:07;98785.69;;;25.39;50.84
43312;BME280;30041;48.300;16.352;2023-08-30T03:15:33;98776.44;;;25.40;50.74
43312;BME280;30041;48.300;16.352;2023-08-30T03:17:59;98774.00;;;25.38;50.85
43312;BME280;30041;48.300;16.352;2023-08-30T03:20:25;98772.94;;;25.39;50.82
43312;BME280;30041;48.300;16.352;2023-08-30T03:22:50;98768.31;;;25.40;51.04
43312;BME280;30041;48.300;16.352;2023-08-30T03:25:16;98747.72;;;25.39;50.75
43312;BME280;30041;48.300;16.352;2023-08-30T03:27:44;98751.22;;;25.39;50.78
43312;BME280;30041;48.300;16.352;2023-08-30T03:30:10;98759.38;;;25.39;50.95
43312;BME280;30041;48.300;16.352;2023-08-30T03:32:36;98753.41;;;25.37;51.14
43312;BME280;30041;48.300;16.352;2023-08-30T03:35:02;98749.59;;;25.38;51.00
43312;BME280;30041;48.300;16.352;2023-08-30T03:37:27;98745.28;;;25.37;50.92
43312;BME280;30041;48.300;16.352;2023-08-30T03:39:53;98743.63;;;25.36;50.86
43312;BME280;30041;48.300;16.352;2023-08-30T03:42:18;98746.34;;;25.36;50.90
43312;BME280;30041;48.300;16.352;2023-08-30T03:44:46;98757.19;;;25.36;51.06
43312;BME280;30041;48.300;16.352;2023-08-30T03:47:12;98761.81;;;25.36;50.93
43312;BME280;30041;48.300;16.352;2023-08-30T03:49:37;98779.72;;;25.37;50.96
43312;BME280;30041;48.300;16.352;2023-08-30T03:52:05;98775.09;;;25.37;50.98
43312;BME280;30041;48.300;16.352;2023-08-30T03:54:31;98782.72;;;25.35;50.88
43312;BME280;30041;48.300;16.352;2023-08-30T03:56:57;98787.03;;;25.36;50.88
43312;BME280;30041;48.300;16.352;2023-08-30T03:59:22;98776.19;;;25.36;50.82
43312;BME280;30041;48.300;16.352;2023-08-30T04:01:48;98779.72;;;25.37;50.96
43312;BME280;30041;48.300;16.352;2023-08-30T04:04:16;98779.22;;;25.35;50.80
43312;BME280;30041;48.300;16.352;2023-08-30T04:06:42;98782.19;;;25.33;50.94
43312;BME280;30041;48.300;16.352;2023-08-30T04:09:07;98775.69;;;25.34;51.04
43312;BME280;30041;48.300;16.352;2023-08-30T04:11:33;98782.72;;;25.35;50.79
43312;BME280;30041;48.300;16.352;2023-08-30T04:14:00;98779.47;;;25.33;51.11
43312;BME280;30041;48.300;16.352;2023-08-30T04:16:26;98772.97;;;25.34;50.94
43312;BME280;30041;48.300;16.352;2023-08-30T04:18:51;98773.78;;;25.35;51.00
43312;BME280;30041;48.300;16.352;2023-08-30T04:21:17;98785.44;;;25.35;50.87
43312;BME280;30041;48.300;16.352;2023-08-30T04:23:42;98785.44;;;25.35;50.83
43312;BME280;30041;48.300;16.352;2023-08-30T04:26:08;98787.34;;;25.35;51.09
43312;BME280;30041;48.300;16.352;2023-08-30T04:28:33;98793.84;;;25.34;50.87
43312;BME280;30041;48.300;16.352;2023-08-30T04:30:58;98796.28;;;25.35;50.95
43312;BME280;30041;48.300;16.352;2023-08-30T04:33:25;98800.09;;;25.34;50.96
43312;BME280;30041;48.300;16.352;2023-08-30T04:35:54;98797.38;;;25.34;50.88
43312;BME280;30041;48.300;16.352;2023-08-30T04:38:20;98805.53;;;25.34;51.03
43312;BME280;30041;48.300;16.352;2023-08-30T04:40:47;98804.69;;;25.34;50.88
43312;BME280;30041;48.300;16.352;2023-08-30T04:43:13;98811.50;;;25.31;50.98
43312;BME280;30041;48.300;16.352;2023-08-30T04:45:38;98815.00;;;25.32;50.89
43312;BME280;30041;48.300;16.352;2023-08-30T04:48:04;98815.00;;;25.32;51.10
43312;BME280;30041;48.300;16.352;2023-08-30T04:50:30;98812.03;;;25.33;51.07
43312;BME280;30041;48.300;16.352;2023-08-30T04:52:57;98813.41;;;25.31;50.87
43312;BME280;30041;48.300;16.352;2023-08-30T04:55:28;98816.13;;;25.31;50.95
43312;BME280;30041;48.300;16.352;2023-08-30T04:57:54;98817.22;;;25.30;50.66
43312;BME280;30041;48.300;16.352;2023-08-30T05:00:20;98825.84;;;25.32;50.85
43312;BME280;30041;48.300;16.352;2023-08-30T05:02:45;98834.84;;;25.32;50.67
43312;BME280;30041;48.300;16.352;2023-08-30T05:05:11;98835.91;;;25.31;50.80
43312;BME280;30041;48.300;16.352;2023-08-30T05:07:36;98829.69;;;25.31;51.16
43312;BME280;30041;48.300;16.352;2023-08-30T05:10:02;98837.28;;;25.29;50.97
43312;BME280;30041;48.300;16.352;2023-08-30T05:12:28;98838.09;;;25.29;51.06
43312;BME280;30041;48.300;16.352;2023-08-30T05:14:53;98845.16;;;25.30;50.98
43312;BME280;30041;48.300;16.352;2023-08-30T05:17:18;98843.50;;;25.29;50.85
43312;BME280;30041;48.300;16.352;2023-08-30T05:19:44;98831.84;;;25.29;50.92
43312;BME280;30041;48.300;16.352;2023-08-30T05:22:09;98835.09;;;25.31;50.84
43312;BME280;30041;48.300;16.352;2023-08-30T05:24:35;98833.50;;;25.30;50.86
43312;BME280;30041;48.300;16.352;2023-08-30T05:27:02;98832.97;;;25.27;50.92
43312;BME280;30041;48.300;16.352;2023-08-30T05:29:27;98839.72;;;25.30;50.92
43312;BME280;30041;48.300;16.352;2023-08-30T05:31:53;98842.72;;;25.29;50.88
43312;BME280;30041;48.300;16.352;2023-08-30T05:34:18;98837.28;;;25.29;50.97
43312;BME280;30041;48.300;16.352;2023-08-30T05:36:47;98836.47;;;25.28;50.95
43312;BME280;30041;48.300;16.352;2023-08-30T05:39:12;98843.50;;;25.29;50.90
43312;BME280;30041;48.300;16.352;2023-08-30T05:41:38;98846.53;;;25.27;51.06
43312;BME280;30041;48.300;16.352;2023-08-30T05:44:04;98850.03;;;25.28;50.92
43312;BME280;30041;48.300;16.352;2023-08-30T05:46:29;98847.31;;;25.28;50.89
43312;BME280;30041;48.300;16.352;2023-08-30T05:48:55;98851.94;;;25.27;50.89
43312;BME280;30041;48.300;16.352;2023-08-30T05:51:20;98846.53;;;25.27;50.97
43312;BME280;30041;48.300;16.352;2023-08-30T05:53:46;98846.53;;;25.27;50.99
43312;BME280;30041;48.300;16.352;2023-08-30T05:56:11;98843.81;;;25.27;50.80
43312;BME280;30041;48.300;16.352;2023-08-30T05:58:37;98841.91;;;25.28;50.82
43312;BME280;30041;48.300;16.352;2023-08-30T06:01:02;98847.59;;;25.26;50.90
43312;BME280;30041;48.300;16.352;2023-08-30T06:03:27;98845.69;;;25.27;50.66
43312;BME280;30041;48.300;16.352;2023-08-30T06:05:53;98839.75;;;25.25;50.87
43312;BME280;30041;48.300;16.352;2023-08-30T06:08:18;98844.09;;;25.26;51.06
43312;BME280;30041;48.300;16.352;2023-08-30T06:10:44;98852.22;;;25.26;50.92
43312;BME280;30041;48.300;16.352;2023-08-30T06:13:11;98850.31;;;25.26;50.96
43312;BME280;30041;48.300;16.352;2023-08-30T06:15:37;98849.25;;;25.27;50.94
43312;BME280;30041;48.300;16.352;2023-08-30T06:18:03;98848.41;;;25.27;50.86
43312;BME280;30041;48.300;16.352;2023-08-30T06:20:29;98846.81;;;25.26;50.95
43312;BME280;30041;48.300;16.352;2023-08-30T06:22:54;98847.06;;;25.24;50.99
43312;BME280;30041;48.300;16.352;2023-08-30T06:25:19;98857.66;;;25.26;50.87
43312;BME280;30041;48.300;16.352;2023-08-30T06:27:55;98853.31;;;25.25;50.84
43312;BME280;30041;48.300;16.352;2023-08-30T06:30:21;98855.50;;;25.23;50.90
43312;BME280;30041;48.300;16.352;2023-08-30T06:32:46;98860.34;;;25.26;50.77
43312;BME280;30041;48.300;16.352;2023-08-30T06:35:14;98857.91;;;25.24;51.08
43312;BME280;30041;48.300;16.352;2023-08-30T06:37:40;98857.13;;;25.24;50.84
43312;BME280;30041;48.300;16.352;2023-08-30T06:40:06;98865.25;;;25.24;50.78
43312;BME280;30041;48.300;16.352;2023-08-30T06:42:32;98863.34;;;25.24;51.11
43312;BME280;30041;48.300;16.352;2023-08-30T06:44:57;98861.16;;;25.26;50.76
43312;BME280;30041;48.300;16.352;2023-08-30T06:47:22;98866.84;;;25.25;51.00
43312;BME280;30041;48.300;16.352;2023-08-30T06:49:48;98854.94;;;25.26;50.84
43312;BME280;30041;48.300;16.352;2023-08-30T06:52:13;98859.56;;;25.25;50.99
43312;BME280;30041;48.300;16.352;2023-08-30T06:54:39;98857.13;;;25.24;51.17
43312;BME280;30041;48.300;16.352;2023-08-30T06:57:04;98864.16;;;25.25;50.79
43312;BME280;30041;48.300;16.352;2023-08-30T06:59:30;98858.72;;;25.25;50.82
43312;BME280;30041;48.300;16.352;2023-08-30T07:01:55;98854.41;;;25.24;50.80
43312;BME280;30041;48.300;16.352;2023-08-30T07:04:21;98868.50;;;25.26;51.06
43312;BME280;30041;48.300;16.352;2023-08-30T07:06:46;98864.97;;;25.25;50.84
43312;BME280;30041;48.300;16.352;2023-08-30T07:09:12;98868.75;;;25.24;50.84
43312;BME280;30041;48.300;16.352;2023-08-30T07:11:38;98862.53;;;25.24;50.84
43312;BME280;30041;48.300;16.352;2023-08-30T07:14:03;98857.13;;;25.24;51.03
43312;BME280;30041;48.300;16.352;2023-08-30T07:16:29;98862.53;;;25.24;50.50
43312;BME280;30041;48.300;16.352;2023-08-30T07:18:54;98862.53;;;25.24;50.84
43312;BME280;30041;48.300;16.352;2023-08-30T07:21:20;98856.84;;;25.25;50.80
43312;BME280;30041;48.300;16.352;2023-08-30T07:23:45;98854.41;;;25.24;50.74
43312;BME280;30041;48.300;16.352;2023-08-30T07:26:11;98847.38;;;25.23;50.80
43312;BME280;30041;48.300;16.352;2023-08-30T07:28:36;98857.13;;;25.24;50.78
43312;BME280;30041;48.300;16.352;2023-08-30T07:31:05;98862.00;;;25.22;50.88
43312;BME280;30041;48.300;16.352;2023-08-30T07:33:33;98854.41;;;25.24;50.65
43312;BME280;30041;48.300;16.352;2023-08-30T07:35:59;98855.50;;;25.23;51.02
43312;BME280;30041;48.300;16.352;2023-08-30T07:38:24;98863.34;;;25.24;50.87
43312;BME280;30041;48.300;16.352;2023-08-30T07:40:50;98865.25;;;25.24;50.80
43312;BME280;30041;48.300;16.352;2023-08-30T07:43:15;98862.53;;;25.24;50.62
43312;BME280;30041;48.300;16.352;2023-08-30T07:45:41;98860.94;;;25.23;50.84
43312;BME280;30041;48.300;16.352;2023-08-30T07:48:06;98862.53;;;25.24;50.67
43312;BME280;30041;48.300;16.352;2023-08-30T07:50:32;98857.66;;;25.26;50.74
43312;BME280;30041;48.300;16.352;2023-08-30T07:52:57;98860.34;;;25.26;50.93
43312;BME280;30041;48.300;16.352;2023-08-30T07:55:23;98860.34;;;25.26;50.74
43312;BME280;30041;48.300;16.352;2023-08-30T07:57:48;98867.97;;;25.24;50.74
43312;BME280;30041;48.300;16.352;2023-08-30T08:00:14;98871.22;;;25.26;50.86
43312;BME280;30041;48.300;16.352;2023-08-30T08:02:40;98869.88;;;25.23;50.56
43312;BME280;30041;48.300;16.352;2023-08-30T08:05:05;98878.81;;;25.24;50.83
43312;BME280;30041;48.300;16.352;2023-08-30T08:07:31;98869.88;;;25.23;50.70
43312;BME280;30041;48.300;16.352;2023-08-30T08:09:57;98867.16;;;25.23;50.96
43312;BME280;30041;48.300;16.352;2023-08-30T08:12:22;98876.09;;;25.24;50.80
43312;BME280;30041;48.300;16.352;2023-08-30T08:14:48;98871.78;;;25.23;50.75
43312;BME280;30041;48.300;16.352;2023-08-30T08:17:16;98879.63;;;25.24;50.84
43312;BME280;30041;48.300;16.352;2023-08-30T08:19:41;98878.81;;;25.24;50.62
43312;BME280;30041;48.300;16.352;2023-08-30T08:22:07;98889.38;;;25.25;50.54
43312;BME280;30041;48.300;16.352;2023-08-30T08:24:33;98890.19;;;25.26;50.34
43312;BME280;30041;48.300;16.352;2023-08-30T08:26:58;98887.09;;;24.88;47.64
43312;BME280;30041;48.300;16.352;2023-08-30T08:29:24;98891.53;;;24.69;47.71
43312;BME280;30041;48.300;16.352;2023-08-30T08:31:49;98886.94;;;24.64;48.04
43312;BME280;30041;48.300;16.352;2023-08-30T08:34:15;98892.38;;;24.59;48.35
43312;BME280;30041;48.300;16.352;2023-08-30T08:36:42;98895.91;;;24.59;48.41
43312;BME280;30041;48.300;16.352;2023-08-30T08:39:10;98910.56;;;24.48;48.36
43312;BME280;30041;48.300;16.352;2023-08-30T08:41:43;98901.88;;;24.31;48.70
43312;BME280;30041;48.300;16.352;2023-08-30T08:44:09;98906.78;;;24.23;48.76
43312;BME280;30041;48.300;16.352;2023-08-30T08:46:37;98910.34;;;24.14;49.06
43312;BME280;30041;48.300;16.352;2023-08-30T08:49:09;98917.06;;;24.11;48.96
43312;BME280;30041;48.300;16.352;2023-08-30T08:51:36;98919.28;;;24.09;49.04
43312;BME280;30041;48.300;16.352;2023-08-30T08:54:03;98920.59;;;24.07;49.01
43312;BME280;30041;48.300;16.352;2023-08-30T08:56:30;98921.41;;;24.02;48.86
43312;BME280;30041;48.300;16.352;2023-08-30T08:58:56;98921.97;;;23.99;49.03
43312;BME280;30041;48.300;16.352;2023-08-30T09:01:22;98929.00;;;24.00;48.94
43312;BME280;30041;48.300;16.352;2023-08-30T09:03:48;98926.59;;;23.98;49.08
43312;BME280;30041;48.300;16.352;2023-08-30T09:06:15;98921.97;;;23.94;49.31
43312;BME280;30041;48.300;16.352;2023-08-30T09:08:43;98926.06;;;23.91;49.22
43312;BME280;30041;48.300;16.352;2023-08-30T09:11:09;98919.81;;;23.86;49.08
43312;BME280;30041;48.300;16.352;2023-08-30T09:13:35;98932.25;;;23.92;49.28
43312;BME280;30041;48.300;16.352;2023-08-30T09:16:00;98919.81;;;23.91;49.21
43312;BME280;30041;48.300;16.352;2023-08-30T09:18:26;98918.44;;;23.88;49.26
43312;BME280;30041;48.300;16.352;2023-08-30T09:20:51;98914.13;;;23.87;49.35
43312;BME280;30041;48.300;16.352;2023-08-30T09:23:20;98926.84;;;23.87;49.07
43312;BME280;30041;48.300;16.352;2023-08-30T09:25:47;98929.28;;;23.83;49.17
43312;BME280;30041;48.300;16.352;2023-08-30T09:28:19;98938.22;;;23.83;49.29
43312;BME280;30041;48.300;16.352;2023-08-30T09:30:49;98937.13;;;23.79;49.58
43312;BME280;30041;48.300;16.352;2023-08-30T09:33:15;98949.28;;;23.82;49.48
43312;BME280;30041;48.300;16.352;2023-08-30T09:35:43;98954.69;;;23.82;49.46
43312;BME280;30041;48.300;16.352;2023-08-30T09:38:18;98943.06;;;23.81;49.39
43312;BME280;30041;48.300;16.352;2023-08-30T09:40:44;98942.53;;;23.79;49.40
43312;BME280;30041;48.300;16.352;2023-08-30T09:43:11;98945.78;;;23.81;49.73
43312;BME280;30041;48.300;16.352;2023-08-30T09:45:37;98939.81;;;23.79;50.06
43312;BME280;30041;48.300;16.352;2023-08-30T09:48:03;98944.44;;;23.79;50.38
43312;BME280;30041;48.300;16.352;2023-08-30T09:50:33;98941.19;;;23.77;50.64
43312;BME280;30041;48.300;16.352;2023-08-30T09:53:00;98951.47;;;23.75;50.48
43312;BME280;30041;48.300;16.352;2023-08-30T09:55:27;98953.34;;;23.79;50.53
43312;BME280;30041;48.300;16.352;2023-08-30T09:57:53;98955.25;;;23.79;50.60
43312;BME280;30041;48.300;16.352;2023-08-30T10:00:19;98952.81;;;23.77;50.57
43312;BME280;30041;48.300;16.352;2023-08-30T10:02:44;98954.97;;;23.75;50.20
43312;BME280;30041;48.300;16.352;2023-08-30T10:05:10;98950.63;;;23.74;50.31
43312;BME280;30041;48.300;16.352;2023-08-30T10:07:37;98956.84;;;23.70;50.56
43312;BME280;30041;48.300;16.352;2023-08-30T10:10:06;98958.75;;;23.69;50.33
43312;BME280;30041;48.300;16.352;2023-08-30T10:12:32;98949.78;;;23.63;50.21
43312;BME280;30041;48.300;16.352;2023-08-30T10:14:57;98960.34;;;23.65;49.95
43312;BME280;30041;48.300;16.352;2023-08-30T10:17:27;98961.69;;;23.68;50.29
43312;BME280;30041;48.300;16.352;2023-08-30T10:19:54;98959.25;;;23.66;50.56
43312;BME280;30041;48.300;16.352;2023-08-30T10:22:21;98956.84;;;23.65;50.51
43312;BME280;30041;48.300;16.352;2023-08-30T10:24:52;98944.13;;;23.65;50.62
43312;BME280;30041;48.300;16.352;2023-08-30T10:27:19;98955.19;;;23.63;50.83
43312;BME280;30041;48.300;16.352;2023-08-30T10:29:45;98956.00;;;23.64;50.70
43312;BME280;30041;48.300;16.352;2023-08-30T10:32:19;98947.34;;;23.62;50.78
43312;BME280;30041;48.300;16.352;2023-08-30T10:34:48;98943.31;;;23.65;51.14
43312;BME280;30041;48.300;16.352;2023-08-30T10:37:13;98948.97;;;23.63;51.07
43312;BME280;30041;48.300;16.352;2023-08-30T10:39:40;98945.19;;;23.64;50.76
43312;BME280;30041;48.300;16.352;2023-08-30T10:42:13;98938.72;;;23.65;50.64
43312;BME280;30041;48.300;16.352;2023-08-30T10:45:13;98943.84;;;23.61;50.82
43312;BME280;30041;48.300;16.352;2023-08-30T10:47:38;98941.94;;;23.62;50.98
43312;BME280;30041;48.300;16.352;2023-08-30T10:50:09;98935.19;;;23.65;50.96
43312;BME280;30041;48.300;16.352;2023-08-30T10:52:35;98939.22;;;23.62;50.86
43312;BME280;30041;48.300;16.352;2023-08-30T10:55:10;98934.94;;;23.71;49.80
43312;BME280;30041;48.300;16.352;2023-08-30T10:57:36;98929.47;;;23.51;48.25
43312;BME280;30041;48.300;16.352;2023-08-30T11:02:44;98933.50;;;23.33;47.04
43312;BME280;30041;48.300;16.352;2023-08-30T11:05:09;98943.75;;;23.26;47.59
43312;BME280;30041;48.300;16.352;2023-08-30T11:07:35;98946.50;;;23.36;47.80
43312;BME280;30041;48.300;16.352;2023-08-30T11:10:04;98938.91;;;23.33;47.37
43312;BME280;30041;48.300;16.352;2023-08-30T11:12:30;98933.78;;;23.31;47.62
43312;BME280;30041;48.300;16.352;2023-08-30T11:14:58;98934.59;;;23.27;47.94
43312;BME280;30041;48.300;16.352;2023-08-30T11:17:26;98935.38;;;23.22;47.64
43312;BME280;30041;48.300;16.352;2023-08-30T11:19:57;98935.66;;;23.20;47.50
43312;BME280;30041;48.300;16.352;2023-08-30T11:22:30;98946.16;;;23.17;47.05
43312;BME280;30041;48.300;16.352;2023-08-30T11:24:59;98935.09;;;23.13;46.57
43312;BME280;30041;48.300;16.352;2023-08-30T11:27:24;98931.84;;;23.11;46.42
43312;BME280;30041;48.300;16.352;2023-08-30T11:29:50;98938.59;;;23.09;46.41
43312;BME280;30041;48.300;16.352;2023-08-30T11:32:16;98927.22;;;23.07;46.38
43312;BME280;30041;48.300;16.352;2023-08-30T11:34:42;98927.19;;;23.02;46.65
43312;BME280;30041;48.300;16.352;2023-08-30T11:37:07;98933.69;;;23.06;46.35
43312;BME280;30041;48.300;16.352;2023-08-30T11:39:33;98933.19;;;23.09;46.64
43312;BME280;30041;48.300;16.352;2023-08-30T11:41:59;98936.97;;;23.13;46.64
43312;BME280;30041;48.300;16.352;2023-08-30T11:44:28;98927.22;;;23.12;46.87
43312;BME280;30041;48.300;16.352;2023-08-30T11:47:00;98928.31;;;23.11;46.89
43312;BME280;30041;48.300;16.352;2023-08-30T11:49:27;98930.22;;;23.15;47.11
43312;BME280;30041;48.300;16.352;2023-08-30T11:51:54;98933.19;;;23.19;47.22
43312;BME280;30041;48.300;16.352;2023-08-30T11:54:20;98944.00;;;23.19;46.78
43312;BME280;30041;48.300;16.352;2023-08-30T11:56:46;98933.44;;;23.17;46.67
43312;BME280;30041;48.300;16.352;2023-08-30T11:59:21;98927.78;;;23.19;46.68
43312;BME280;30041;48.300;16.352;2023-08-30T12:01:48;98935.34;;;23.17;46.61
43312;BME280;30041;48.300;16.352;2023-08-30T12:04:14;98928.34;;;23.21;46.42
43312;BME280;30041;48.300;16.352;2023-08-30T12:06:39;98923.47;;;23.23;46.69
43312;BME280;30041;48.300;16.352;2023-08-30T12:09:05;98932.69;;;23.22;46.04
43312;BME280;30041;48.300;16.352;2023-08-30T12:11:31;98930.25;;;23.20;46.09
43312;BME280;30041;48.300;16.352;2023-08-30T12:14:02;98932.69;;;23.22;46.01
43312;BME280;30041;48.300;16.352;2023-08-30T12:16:27;98927.53;;;23.15;45.78
43312;BME280;30041;48.300;16.352;2023-08-30T12:18:53;98928.84;;;23.13;46.25
43312;BME280;30041;48.300;16.352;2023-08-30T12:21:18;98925.63;;;23.16;46.16
43312;BME280;30041;48.300;16.352;2023-08-30T12:23:44;98914.81;;;23.16;46.11
43312;BME280;30041;48.300;16.352;2023-08-30T12:26:10;98923.44;;;23.13;45.98
43312;BME280;30041;48.300;16.352;2023-08-30T12:28:39;98922.13;;;23.15;45.48
43312;BME280;30041;48.300;16.352;2023-08-30T12:31:06;98913.16;;;23.10;45.77
43312;BME280;30041;48.300;16.352;2023-08-30T12:33:33;98920.19;;;23.06;45.56
43312;BME280;30041;48.300;16.352;2023-08-30T12:35:59;98920.47;;;23.09;45.91
43312;BME280;30041;48.300;16.352;2023-08-30T12:38:25;98924.53;;;23.17;46.41
43312;BME280;30041;48.300;16.352;2023-08-30T12:40:52;98922.69;;;23.23;47.35
43312;BME280;30041;48.300;16.352;2023-08-30T12:43:19;98929.97;;;23.27;47.15
43312;BME280;30041;48.300;16.352;2023-08-30T12:45:44;98933.25;;;23.29;47.68
43312;BME280;30041;48.300;16.352;2023-08-30T12:48:11;98927.84;;;23.29;47.67
43312;BME280;30041;48.300;16.352;2023-08-30T12:50:37;98927.84;;;23.29;48.02
43312;BME280;30041;48.300;16.352;2023-08-30T12:53:06;98923.78;;;23.27;48.34